createdAt,value
2022-10-16T00:00:21.971Z,98202.91
2022-10-16T00:02:26.847Z,98205.63
2022-10-16T00:04:31.633Z,98209.22
2022-10-16T00:06:36.482Z,98205.75
2022-10-16T00:08:42.011Z,98211.09
2022-10-16T00:10:49.356Z,98220.66
2022-10-16T00:12:54.353Z,98227.72
2022-10-16T00:14:59.166Z,98233.81
2022-10-16T00:17:04.131Z,98229.31
2022-10-16T00:19:09.439Z,98231.94
2022-10-16T00:21:14.849Z,98238.38
2022-10-16T00:23:19.745Z,98228.91
2022-10-16T00:25:24.518Z,98228.06
2022-10-16T00:27:31.999Z,98226.38
2022-10-16T00:29:37.606Z,98225.66
2022-10-16T00:31:42.506Z,98225.66
2022-10-16T00:33:47.713Z,98233.34
2022-10-16T00:35:52.868Z,98233.34
2022-10-16T00:37:57.703Z,98242.91
2022-10-16T00:40:02.510Z,98242.28
2022-10-16T00:42:07.675Z,98248.38
2022-10-16T00:44:27.176Z,98243.41
2022-10-16T00:46:40.777Z,98233.00
2022-10-16T00:48:49.425Z,98231.44
2022-10-16T00:50:54.378Z,98234.06
2022-10-16T00:52:59.700Z,98238.16
2022-10-16T00:55:06.689Z,98249.53
2022-10-16T00:57:11.889Z,98243.44
2022-10-16T00:59:19.293Z,98242.81
2022-10-16T01:01:26.387Z,98250.78
2022-10-16T01:03:36.106Z,98257.00
2022-10-16T01:05:48.394Z,98254.25
2022-10-16T01:08:01.917Z,98268.16
2022-10-16T01:10:13.073Z,98255.13
2022-10-16T01:12:24.031Z,98245.31
2022-10-16T01:14:40.209Z,98253.22
2022-10-16T01:16:53.055Z,98263.00
2022-10-16T01:19:09.525Z,98266.47
2022-10-16T01:21:19.777Z,98258.47
2022-10-16T01:23:40.487Z,98263.84
2022-10-16T01:26:03.372Z,98255.97
2022-10-16T01:28:15.756Z,98261.22
2022-10-16T01:30:25.689Z,98258.69
2022-10-16T01:32:37.832Z,98258.81
2022-10-16T01:34:49.831Z,98267.81
2022-10-16T01:37:00.682Z,98265.09
2022-10-16T01:39:06.857Z,98267.53
2022-10-16T01:41:15.474Z,98276.25
2022-10-16T01:43:29.367Z,98271.00
2022-10-16T01:45:36.664Z,98272.03
2022-10-16T01:47:42.633Z,98277.28
2022-10-16T01:49:48.755Z,98274.88
2022-10-16T01:51:58.505Z,98279.19
2022-10-16T01:54:05.865Z,98291.41
2022-10-16T01:56:13.542Z,98291.28
2022-10-16T01:58:18.571Z,98306.44
2022-10-16T02:00:27.298Z,98302.53
2022-10-16T02:02:34.359Z,98293.81
2022-10-16T02:04:43.102Z,98293.69
2022-10-16T02:06:47.982Z,98295.50
2022-10-16T02:08:52.952Z,98296.53
2022-10-16T02:10:58.634Z,98298.25
2022-10-16T02:13:09.942Z,98295.50
2022-10-16T02:15:15.012Z,98294.66
2022-10-16T02:17:22.611Z,98300.97
2022-10-16T02:19:27.888Z,98296.75
2022-10-16T02:21:33.947Z,98291.06
2022-10-16T02:23:47.035Z,98295.38
2022-10-16T02:25:54.905Z,98295.50
2022-10-16T02:28:04.877Z,98291.16
2022-10-16T02:30:15.057Z,98290.13
2022-10-16T02:32:27.667Z,98287.59
2022-10-16T02:34:35.673Z,98290.03
2022-10-16T02:36:41.718Z,98283.19
2022-10-16T02:38:47.002Z,98285.69
2022-10-16T02:40:52.460Z,98296.22
2022-10-16T02:42:58.595Z,98290.88
2022-10-16T02:45:03.566Z,98291.69
2022-10-16T02:47:08.702Z,98287.19
2022-10-16T02:49:16.380Z,98288.31
2022-10-16T02:51:21.125Z,98277.94
2022-10-16T02:53:25.891Z,98280.56
2022-10-16T02:55:31.539Z,98287.59
2022-10-16T02:57:37.860Z,98304.31
2022-10-16T02:59:42.632Z,98304.50
2022-10-16T03:01:47.444Z,98308.00
2022-10-16T03:03:52.309Z,98302.84
2022-10-16T03:05:59.679Z,98300.97
2022-10-16T03:08:04.473Z,98308.84
2022-10-16T03:10:10.286Z,98316.72
2022-10-16T03:12:15.770Z,98313.25
2022-10-16T03:14:20.575Z,98306.31
2022-10-16T03:16:25.615Z,98309.78
2022-10-16T03:18:30.386Z,98311.69
2022-10-16T03:20:35.147Z,98305.75
2022-10-16T03:22:42.605Z,98308.50
2022-10-16T03:24:47.489Z,98312.94
2022-10-16T03:26:52.315Z,98309.72
2022-10-16T03:28:57.088Z,98321.06
2022-10-16T03:31:01.948Z,98311.50
2022-10-16T03:33:06.818Z,98316.03
2022-10-16T03:35:11.952Z,98306.56
2022-10-16T03:37:16.802Z,98326.66
2022-10-16T03:39:26.615Z,98337.34
2022-10-16T03:41:31.385Z,98327.56
2022-10-16T03:43:36.177Z,98327.56
2022-10-16T03:45:41.089Z,98330.13
2022-10-16T03:47:45.880Z,98330.13
2022-10-16T03:49:50.625Z,98327.50
2022-10-16T03:51:55.465Z,98329.38
2022-10-16T03:54:00.312Z,98328.41
2022-10-16T03:56:08.135Z,98329.06
2022-10-16T03:58:13.014Z,98337.16
2022-10-16T04:00:18.051Z,98332.63
2022-10-16T04:02:22.772Z,98328.13
2022-10-16T04:04:27.667Z,98333.47
2022-10-16T04:06:32.417Z,98337.88
2022-10-16T04:08:37.968Z,98344.72
2022-10-16T04:10:42.732Z,98342.75
2022-10-16T04:12:50.134Z,98344.34
2022-10-16T04:14:54.865Z,98353.09
2022-10-16T04:16:59.713Z,98350.38
2022-10-16T04:19:04.537Z,98355.81
2022-10-16T04:21:10.255Z,98355.63
2022-10-16T04:23:15.010Z,98361.94
2022-10-16T04:25:20.138Z,98343.78
2022-10-16T04:27:25.146Z,98356.00
2022-10-16T04:29:32.780Z,98343.91
2022-10-16T04:31:37.699Z,98355.16
2022-10-16T04:33:42.615Z,98357.78
2022-10-16T04:35:50.145Z,98339.38
2022-10-16T04:37:55.092Z,98348.19
2022-10-16T04:39:59.829Z,98340.31
2022-10-16T04:42:04.617Z,98341.16
2022-10-16T04:44:09.383Z,98349.91
2022-10-16T04:46:16.764Z,98350.63
2022-10-16T04:48:21.702Z,98344.66
2022-10-16T04:50:26.672Z,98341.06
2022-10-16T04:52:43.752Z,98337.44
2022-10-16T04:54:48.822Z,98339.94
2022-10-16T04:56:53.563Z,98345.31
2022-10-16T04:58:58.303Z,98351.31
2022-10-16T05:01:03.060Z,98345.31
2022-10-16T05:03:11.061Z,98350.56
2022-10-16T05:05:15.909Z,98348.00
2022-10-16T05:07:20.780Z,98343.69
2022-10-16T05:09:25.722Z,98350.00
2022-10-16T05:11:30.710Z,98348.41
2022-10-16T05:13:35.489Z,98358.28
2022-10-16T05:15:40.526Z,98364.69
2022-10-16T05:17:45.311Z,98356.34
2022-10-16T05:19:52.814Z,98362.56
2022-10-16T05:21:57.536Z,98363.59
2022-10-16T05:24:02.333Z,98366.41
2022-10-16T05:26:07.534Z,98377.97
2022-10-16T05:28:12.336Z,98384.94
2022-10-16T05:30:17.095Z,98370.09
2022-10-16T05:32:22.876Z,98379.84
2022-10-16T05:34:27.632Z,98382.56
2022-10-16T05:36:34.985Z,98392.88
2022-10-16T05:38:41.188Z,98403.13
2022-10-16T05:40:46.029Z,98409.84
2022-10-16T05:42:50.757Z,98406.28
2022-10-16T05:44:55.734Z,98405.34
2022-10-16T05:47:00.622Z,98405.25
2022-10-16T05:49:05.453Z,98420.91
2022-10-16T05:51:13.568Z,98414.84
2022-10-16T05:53:26.506Z,98412.09
2022-10-16T05:55:31.214Z,98410.41
2022-10-16T05:57:36.062Z,98411.44
2022-10-16T05:59:40.829Z,98411.66
2022-10-16T06:01:45.639Z,98408.06
2022-10-16T06:03:50.733Z,98408.91
2022-10-16T06:05:55.925Z,98402.91
2022-10-16T06:08:00.383Z,98408.47
2022-10-16T06:10:09.848Z,98422.44
2022-10-16T06:12:14.563Z,98421.41
2022-10-16T06:14:20.449Z,98421.31
2022-10-16T06:16:25.618Z,98421.13
2022-10-16T06:18:30.398Z,98421.13
2022-10-16T06:20:35.260Z,98426.06
2022-10-16T06:22:40.022Z,98428.41
2022-10-16T06:24:44.741Z,98424.63
2022-10-16T06:26:52.364Z,98417.38
2022-10-16T06:28:58.599Z,98418.66
2022-10-16T06:31:07.288Z,98423.91
2022-10-16T06:33:13.299Z,98424.53
2022-10-16T06:35:18.137Z,98427.91
2022-10-16T06:37:23.143Z,98435.63
2022-10-16T06:39:27.920Z,98423.97
2022-10-16T06:41:32.875Z,98428.41
2022-10-16T06:43:49.758Z,98418.72
2022-10-16T06:45:55.777Z,98423.88
2022-10-16T06:48:03.869Z,98419.56
2022-10-16T06:50:10.268Z,98430.72
2022-10-16T06:52:15.175Z,98425.56
2022-10-16T06:54:20.223Z,98432.41
2022-10-16T06:56:27.237Z,98449.03
2022-10-16T06:58:32.085Z,98444.63
2022-10-16T07:00:39.485Z,98453.25
2022-10-16T07:02:44.208Z,98454.84
2022-10-16T07:04:48.942Z,98457.47
2022-10-16T07:06:53.716Z,98462.75
2022-10-16T07:08:58.563Z,98469.88
2022-10-16T07:11:05.100Z,98473.13
2022-10-16T07:13:14.177Z,98480.94
2022-10-16T07:15:19.022Z,98483.38
2022-10-16T07:17:28.147Z,98470.78
2022-10-16T07:19:34.520Z,98467.41
2022-10-16T07:21:39.544Z,98479.78
2022-10-16T07:23:45.157Z,98492.84
2022-10-16T07:25:56.749Z,98493.38
2022-10-16T07:28:01.549Z,98493.84
2022-10-16T07:30:09.113Z,98486.47
2022-10-16T07:32:14.162Z,98501.78
2022-10-16T07:34:22.964Z,98502.97
2022-10-16T07:36:28.082Z,98503.50
2022-10-16T07:38:32.666Z,98494.84
2022-10-16T07:40:37.483Z,98492.34
2022-10-16T07:42:42.392Z,98494.97
2022-10-16T07:44:47.149Z,98482.75
2022-10-16T07:46:52.076Z,98482.66
2022-10-16T07:48:56.967Z,98479.19
2022-10-16T07:51:06.220Z,98482.44
2022-10-16T07:53:11.335Z,98490.22
2022-10-16T07:55:15.943Z,98487.50
2022-10-16T07:57:21.162Z,98487.38
2022-10-16T07:59:27.542Z,98488.97
2022-10-16T08:01:32.336Z,98494.16
2022-10-16T08:03:37.470Z,98497.22
2022-10-16T08:05:43.049Z,98496.25
2022-10-16T08:07:54.814Z,98503.78
2022-10-16T08:09:59.960Z,98504.63
2022-10-16T08:12:05.343Z,98507.03
2022-10-16T08:14:10.576Z,98510.22
2022-10-16T08:16:15.911Z,98508.22
2022-10-16T08:18:20.847Z,98504.41
2022-10-16T08:20:25.660Z,98504.41
2022-10-16T08:22:30.556Z,98496.47
2022-10-16T08:24:38.035Z,98491.81
2022-10-16T08:26:42.804Z,98492.44
2022-10-16T08:28:47.648Z,98492.34
2022-10-16T08:30:52.565Z,98488.34
2022-10-16T08:32:57.473Z,98482.78
2022-10-16T08:35:02.220Z,98495.59
2022-10-16T08:37:08.588Z,98494.25
2022-10-16T08:39:13.433Z,98496.47
2022-10-16T08:41:36.125Z,98495.41
2022-10-16T08:43:54.881Z,98497.28
2022-10-16T08:46:22.373Z,98495.78
2022-10-16T08:48:34.102Z,98495.16
2022-10-16T08:50:42.558Z,98499.66
2022-10-16T08:52:48.797Z,98489.63
2022-10-16T08:54:57.727Z,98495.53
2022-10-16T08:57:13.603Z,98489.31
2022-10-16T08:59:20.724Z,98481.50
2022-10-16T09:01:27.866Z,98486.56
2022-10-16T09:03:44.669Z,98482.81
2022-10-16T09:06:06.570Z,98482.34
2022-10-16T09:08:21.151Z,98491.09
2022-10-16T09:10:38.891Z,98487.19
2022-10-16T09:12:56.717Z,98491.28
2022-10-16T09:15:10.637Z,98487.34
2022-10-16T09:17:34.798Z,98493.88
2022-10-16T09:19:46.183Z,98487.41
2022-10-16T09:21:52.026Z,98485.50
2022-10-16T09:23:59.233Z,98494.03
2022-10-16T09:26:05.365Z,98497.41
2022-10-16T09:28:13.491Z,98499.38
2022-10-16T09:30:21.010Z,98500.44
2022-10-16T09:32:26.833Z,98502.00
2022-10-16T09:34:35.852Z,98507.66
2022-10-16T09:36:45.822Z,98505.03
2022-10-16T09:38:51.197Z,98517.63
2022-10-16T09:41:02.415Z,98515.59
2022-10-16T09:43:29.604Z,98519.06
2022-10-16T09:45:34.590Z,98520.03
2022-10-16T09:47:43.983Z,98525.09
2022-10-16T09:49:56.192Z,98519.81
2022-10-16T09:52:08.267Z,98511.88
2022-10-16T09:54:19.054Z,98509.47
2022-10-16T09:56:28.451Z,98513.78
2022-10-16T09:58:36.745Z,98520.66
2022-10-16T10:00:46.113Z,98517.03
2022-10-16T10:02:51.433Z,98524.84
2022-10-16T10:04:58.272Z,98526.31
2022-10-16T10:07:03.101Z,98526.06
2022-10-16T10:09:17.782Z,98522.78
2022-10-16T10:11:22.593Z,98515.34
2022-10-16T10:13:30.653Z,98512.06
2022-10-16T10:15:45.602Z,98502.38
2022-10-16T10:17:52.082Z,98508.84
2022-10-16T10:19:58.799Z,98511.03
2022-10-16T10:22:03.702Z,98502.63
2022-10-16T10:24:08.902Z,98503.94
2022-10-16T10:26:19.794Z,98507.69
2022-10-16T10:28:50.560Z,98503.38
2022-10-16T10:31:05.093Z,98506.72
2022-10-16T10:33:22.690Z,98509.28
2022-10-16T10:35:36.767Z,98503.00
2022-10-16T10:37:55.030Z,98507.47
2022-10-16T10:40:06.370Z,98510.47
2022-10-16T10:42:22.027Z,98512.16
2022-10-16T10:44:34.419Z,98504.22
2022-10-16T10:46:49.709Z,98502.81
2022-10-16T10:49:18.465Z,98500.41
2022-10-16T10:51:33.246Z,98506.88
2022-10-16T10:53:49.171Z,98502.78
2022-10-16T10:56:03.079Z,98501.56
2022-10-16T10:58:31.042Z,98501.94
2022-10-16T11:00:52.280Z,98501.69
2022-10-16T11:03:13.280Z,98509.50
2022-10-16T11:05:44.301Z,98500.38
2022-10-16T11:07:55.397Z,98505.41
2022-10-16T11:10:03.274Z,98501.78
2022-10-16T11:12:15.638Z,98499.47
2022-10-16T11:14:24.895Z,98506.22
2022-10-16T11:16:32.619Z,98504.41
2022-10-16T11:18:49.338Z,98502.44
2022-10-16T11:20:58.375Z,98506.53
2022-10-16T11:23:11.613Z,98505.53
2022-10-16T11:25:20.009Z,98510.31
2022-10-16T11:27:30.327Z,98505.63
2022-10-16T11:29:37.410Z,98508.44
2022-10-16T11:31:45.472Z,98505.53
2022-10-16T11:33:58.935Z,98497.22
2022-10-16T11:36:10.196Z,98500.19
2022-10-16T11:38:23.511Z,98500.91
2022-10-16T11:40:34.488Z,98500.19
2022-10-16T11:42:44.396Z,98504.91
2022-10-16T11:44:58.955Z,98498.63
2022-10-16T11:47:39.730Z,98502.13
2022-10-16T11:49:45.610Z,98502.13
2022-10-16T11:52:00.399Z,98508.38
2022-10-16T11:54:09.688Z,98509.00
2022-10-16T11:56:17.548Z,98519.09
2022-10-16T11:58:32.062Z,98514.31
2022-10-16T12:00:44.544Z,98515.78
2022-10-16T12:02:59.025Z,98515.22
2022-10-16T12:05:18.194Z,98514.75
2022-10-16T12:07:29.040Z,98517.97
2022-10-16T12:09:35.585Z,98512.31
2022-10-16T12:11:42.314Z,98512.34
2022-10-16T12:13:49.316Z,98505.25
2022-10-16T12:15:59.139Z,98510.38
2022-10-16T12:18:04.655Z,98508.22
2022-10-16T12:20:31.324Z,98512.69
2022-10-16T12:22:39.324Z,98516.75
2022-10-16T12:24:47.134Z,98507.22
2022-10-16T12:26:54.807Z,98498.16
2022-10-16T12:29:13.318Z,98502.38
2022-10-16T12:31:18.369Z,98497.09
2022-10-16T12:33:27.765Z,98500.50
2022-10-16T12:35:37.488Z,98496.75
2022-10-16T12:37:42.460Z,98496.59
2022-10-16T12:39:47.532Z,98490.47
2022-10-16T12:42:03.858Z,98495.19
2022-10-16T12:44:08.861Z,98495.66
2022-10-16T12:46:25.966Z,98493.66
2022-10-16T12:48:42.279Z,98502.59
2022-10-16T12:50:56.649Z,98497.78
2022-10-16T12:53:01.937Z,98495.72
2022-10-16T12:55:08.738Z,98490.47
2022-10-16T12:57:39.075Z,98487.25
2022-10-16T12:59:50.149Z,98490.38
2022-10-16T13:02:23.305Z,98492.97
2022-10-16T13:04:55.056Z,98494.31
2022-10-16T13:07:23.301Z,98481.84
2022-10-16T13:09:39.528Z,98483.06
2022-10-16T13:12:10.120Z,98486.91
2022-10-16T13:14:32.472Z,98484.91
2022-10-16T13:16:48.670Z,98485.53
2022-10-16T13:19:02.336Z,98475.78
2022-10-16T13:21:18.169Z,98481.13
2022-10-16T13:23:31.190Z,98479.06
2022-10-16T13:25:48.685Z,98482.66
2022-10-16T13:27:59.003Z,98480.81
2022-10-16T13:30:13.148Z,98475.06
2022-10-16T13:32:19.493Z,98478.88
2022-10-16T13:34:26.436Z,98478.41
2022-10-16T13:36:33.072Z,98485.38
2022-10-16T13:38:40.593Z,98492.16
2022-10-16T13:41:00.164Z,98492.69
2022-10-16T13:43:05.376Z,98494.28
2022-10-16T13:45:22.284Z,98498.63
2022-10-16T13:47:29.499Z,98506.59
2022-10-16T13:49:34.889Z,98503.94
2022-10-16T13:51:39.649Z,98507.53
2022-10-16T13:53:48.807Z,98505.16
2022-10-16T13:55:53.553Z,98501.94
2022-10-16T13:58:08.990Z,98506.41
2022-10-16T14:00:26.082Z,98507.88
2022-10-16T14:02:36.001Z,98514.09
2022-10-16T14:04:43.065Z,98514.38
2022-10-16T14:06:50.198Z,98512.56
2022-10-16T14:09:03.894Z,98507.38
2022-10-16T14:11:09.013Z,98510.28
2022-10-16T14:13:22.786Z,98510.69
2022-10-16T14:15:28.857Z,98522.22
2022-10-16T14:17:36.626Z,98516.47
2022-10-16T14:19:41.498Z,98514.94
2022-10-16T14:21:46.337Z,98514.34
2022-10-16T14:23:51.211Z,98515.19
2022-10-16T14:26:09.783Z,98501.81
2022-10-16T14:28:20.818Z,98507.94
2022-10-16T14:30:26.113Z,98510.47
2022-10-16T14:32:31.663Z,98513.25
2022-10-16T14:34:38.002Z,98513.25
2022-10-16T14:36:45.032Z,98509.03
2022-10-16T14:38:57.988Z,98507.63
2022-10-16T14:41:07.110Z,98503.31
2022-10-16T14:43:23.893Z,98505.94
2022-10-16T14:45:34.351Z,98503.03
2022-10-16T14:47:51.701Z,98515.19
2022-10-16T14:50:00.142Z,98515.78
2022-10-16T14:52:05.896Z,98517.34
2022-10-16T14:54:11.998Z,98513.59
2022-10-16T14:56:23.286Z,98517.19
2022-10-16T14:58:31.196Z,98522.75
2022-10-16T15:00:36.160Z,98521.75
2022-10-16T15:02:40.939Z,98524.19
2022-10-16T15:04:45.895Z,98523.22
2022-10-16T15:06:50.685Z,98523.06
2022-10-16T15:08:55.432Z,98520.31
2022-10-16T15:11:00.479Z,98524.50
2022-10-16T15:13:07.809Z,98521.72
2022-10-16T15:15:32.733Z,98526.91
2022-10-16T15:17:37.557Z,98520.03
2022-10-16T15:19:42.401Z,98522.56
2022-10-16T15:21:47.311Z,98516.28
2022-10-16T15:23:53.504Z,98518.22
2022-10-16T15:26:00.454Z,98531.34
2022-10-16T15:28:08.935Z,98532.47
2022-10-16T15:30:14.993Z,98543.31
2022-10-16T15:32:19.794Z,98545.97
2022-10-16T15:34:24.774Z,98539.09
2022-10-16T15:36:34.856Z,98543.69
2022-10-16T15:38:39.733Z,98548.97
2022-10-16T15:40:45.275Z,98544.66
2022-10-16T15:42:50.102Z,98550.06
2022-10-16T15:44:57.468Z,98558.03
2022-10-16T15:47:02.508Z,98556.47
2022-10-16T15:49:07.998Z,98558.41
2022-10-16T15:51:13.202Z,98556.59
2022-10-16T15:53:17.970Z,98563.84
2022-10-16T15:55:22.761Z,98560.59
2022-10-16T15:57:27.709Z,98569.78
2022-10-16T15:59:32.593Z,98571.81
2022-10-16T16:01:40.113Z,98571.13
2022-10-16T16:03:45.522Z,98569.56
2022-10-16T16:05:50.785Z,98564.25
2022-10-16T16:07:55.695Z,98563.66
2022-10-16T16:10:00.431Z,98569.09
2022-10-16T16:12:05.228Z,98581.81
2022-10-16T16:14:10.459Z,98572.06
2022-10-16T16:16:16.955Z,98571.88
2022-10-16T16:18:26.710Z,98574.63
2022-10-16T16:20:31.565Z,98579.09
2022-10-16T16:22:36.496Z,98582.00
2022-10-16T16:26:46.498Z,98582.09
2022-10-16T16:28:51.450Z,98587.63
2022-10-16T16:30:56.276Z,98583.19
2022-10-16T16:33:01.032Z,98588.88
2022-10-16T16:35:09.230Z,98596.22
2022-10-16T16:37:13.977Z,98607.16
2022-10-16T16:39:18.842Z,98611.88
2022-10-16T16:41:26.816Z,98607.91
2022-10-16T16:43:31.817Z,98616.19
2022-10-16T16:45:38.746Z,98623.03
2022-10-16T16:47:43.510Z,98617.03
2022-10-16T16:49:48.512Z,98625.81
2022-10-16T16:51:56.033Z,98627.38
2022-10-16T16:54:00.812Z,98636.63
2022-10-16T16:56:06.761Z,98635.81
2022-10-16T16:58:12.255Z,98639.28
2022-10-16T17:00:17.709Z,98640.97
2022-10-16T17:02:22.650Z,98643.72
2022-10-16T17:04:27.384Z,98641.56
2022-10-16T17:06:33.283Z,98649.50
2022-10-16T17:08:41.732Z,98648.41
2022-10-16T17:10:49.819Z,98652.84
2022-10-16T17:14:59.254Z,98647.94
2022-10-16T17:17:04.261Z,98649.50
2022-10-16T17:19:10.859Z,98651.19
2022-10-16T17:21:15.868Z,98640.59
2022-10-16T17:23:22.365Z,98643.09
2022-10-16T17:25:32.016Z,98658.88
2022-10-16T17:27:38.931Z,98654.56
2022-10-16T17:29:43.730Z,98656.09
2022-10-16T17:31:49.923Z,98660.53
2022-10-16T17:33:55.089Z,98662.25
2022-10-16T17:36:02.048Z,98658.88
2022-10-16T17:38:06.964Z,98653.81
2022-10-16T17:42:22.186Z,98655.44
2022-10-16T17:44:27.224Z,98656.03
2022-10-16T17:46:36.793Z,98652.78
2022-10-16T17:48:47.114Z,98648.69
2022-10-16T17:50:51.890Z,98663.22
2022-10-16T17:52:56.626Z,98658.28
2022-10-16T17:55:01.499Z,98669.94
2022-10-16T17:57:06.302Z,98670.88
2022-10-16T17:59:14.973Z,98676.28
2022-10-16T18:01:22.144Z,98673.97
2022-10-16T18:03:28.288Z,98673.88
2022-10-16T18:05:33.094Z,98677.34
2022-10-16T18:07:38.242Z,98671.47
2022-10-16T18:10:09.899Z,98679.41
2022-10-16T18:12:09.367Z,98690.19
2022-10-16T18:14:17.359Z,98691.72
2022-10-16T18:16:22.417Z,98692.56
2022-10-16T18:18:29.554Z,98695.19
2022-10-16T18:20:35.071Z,98693.53
2022-10-16T18:22:39.750Z,98693.72
2022-10-16T18:24:44.551Z,98695.28
2022-10-16T18:26:49.378Z,98699.97
2022-10-16T18:28:55.833Z,98696.59
2022-10-16T18:31:05.532Z,98697.47
2022-10-16T18:33:10.534Z,98699.47
2022-10-16T18:35:15.300Z,98704.66
2022-10-16T18:37:20.446Z,98706.44
2022-10-16T18:39:27.544Z,98713.63
2022-10-16T18:41:33.283Z,98717.25
2022-10-16T18:43:40.682Z,98713.72
2022-10-16T18:45:45.468Z,98705.31
2022-10-16T18:47:52.862Z,98710.84
2022-10-16T18:49:57.706Z,98714.75
2022-10-16T18:52:03.356Z,98715.44
2022-10-16T18:54:11.978Z,98719.94
2022-10-16T18:56:18.054Z,98718.44
2022-10-16T18:58:23.002Z,98727.34
2022-10-16T19:00:27.777Z,98730.09
2022-10-16T19:02:32.740Z,98730.19
2022-10-16T19:04:40.176Z,98728.63
2022-10-16T19:06:47.043Z,98746.50
2022-10-16T19:08:52.327Z,98745.03
2022-10-16T19:10:57.230Z,98749.88
2022-10-16T19:13:02.003Z,98749.34
2022-10-16T19:15:07.460Z,98755.19
2022-10-16T19:17:12.327Z,98759.09
2022-10-16T19:19:20.573Z,98759.59
2022-10-16T19:21:29.797Z,98757.41
2022-10-16T19:23:35.108Z,98774.41
2022-10-16T19:25:40.438Z,98770.28
2022-10-16T19:27:45.654Z,98774.91
2022-10-16T19:29:50.146Z,98781.78
2022-10-16T19:31:54.895Z,98782.91
2022-10-16T19:34:02.981Z,98780.41
2022-10-16T19:36:12.636Z,98778.06
2022-10-16T19:38:19.952Z,98788.91
2022-10-16T19:40:26.570Z,98783.81
2022-10-16T19:42:31.353Z,98786.84
2022-10-16T19:44:36.086Z,98787.19
2022-10-16T19:46:40.933Z,98784.00
2022-10-16T19:48:46.315Z,98781.66
2022-10-16T19:50:51.781Z,98782.81
2022-10-16T19:52:57.121Z,98790.63
2022-10-16T19:55:04.497Z,98789.03
2022-10-16T19:57:09.543Z,98785.53
2022-10-16T19:59:19.130Z,98799.88
2022-10-16T20:01:24.546Z,98795.75
2022-10-16T20:03:35.648Z,98805.47
2022-10-16T20:05:40.426Z,98796.78
2022-10-16T20:07:45.489Z,98803.09
2022-10-16T20:09:50.302Z,98809.34
2022-10-16T20:11:57.661Z,98811.97
2022-10-16T20:14:03.261Z,98812.81
2022-10-16T20:16:09.356Z,98812.91
2022-10-16T20:18:14.266Z,98818.38
2022-10-16T20:20:19.096Z,98817.53
2022-10-16T20:22:23.865Z,98822.03
2022-10-16T20:24:29.896Z,98828.34
2022-10-16T20:26:35.131Z,98826.94
2022-10-16T20:28:43.560Z,98821.88
2022-10-16T20:30:50.585Z,98823.88
2022-10-16T20:32:56.813Z,98829.34
2022-10-16T20:35:04.342Z,98830.28
2022-10-16T20:37:11.889Z,98832.16
2022-10-16T20:39:16.666Z,98834.16
2022-10-16T20:41:22.499Z,98835.66
2022-10-16T20:43:27.282Z,98840.19
2022-10-16T20:45:34.733Z,98841.22
2022-10-16T20:47:39.919Z,98844.09
2022-10-16T20:49:44.788Z,98844.41
2022-10-16T20:51:50.059Z,98848.81
2022-10-16T20:53:55.589Z,98850.91
2022-10-16T20:56:04.665Z,98854.44
2022-10-16T20:58:09.395Z,98856.34
2022-10-16T21:00:16.315Z,98855.69
2022-10-16T21:04:31.373Z,98857.38
2022-10-16T21:06:38.287Z,98863.56
2022-10-16T21:08:45.173Z,98859.91
2022-10-16T21:10:50.109Z,98864.44
2022-10-16T21:12:56.542Z,98860.09
2022-10-16T21:15:16.113Z,98864.72
2022-10-16T21:17:24.071Z,98864.06
2022-10-16T21:19:31.506Z,98862.66
2022-10-16T21:21:38.471Z,98866.19
2022-10-16T21:23:43.375Z,98876.06
2022-10-16T21:25:51.607Z,98880.41
2022-10-16T21:27:56.345Z,98884.91
2022-10-16T21:30:01.160Z,98880.59
2022-10-16T21:32:06.158Z,98889.34
2022-10-16T21:34:13.538Z,98886.72
2022-10-16T21:36:20.390Z,98883.22
2022-10-16T21:38:25.860Z,98887.63
2022-10-16T21:40:32.350Z,98884.34
2022-10-16T21:42:37.118Z,98893.53
2022-10-16T21:44:41.865Z,98885.72
2022-10-16T21:46:47.667Z,98893.91
2022-10-16T21:48:55.941Z,98891.34
2022-10-16T21:51:03.333Z,98888.81
2022-10-16T21:53:08.136Z,98901.22
2022-10-16T21:55:13.234Z,98905.53
2022-10-16T21:57:17.967Z,98898.66
2022-10-16T21:59:25.940Z,98904.03
2022-10-16T22:01:31.965Z,98904.94
2022-10-16T22:03:36.946Z,98899.97
2022-10-16T22:05:41.710Z,98898.19
2022-10-16T22:07:49.034Z,98902.59
2022-10-16T22:09:53.755Z,98908.72
2022-10-16T22:11:58.510Z,98905.25
2022-10-16T22:14:03.314Z,98906.16
2022-10-16T22:16:08.937Z,98915.84
2022-10-16T22:18:35.581Z,98915.00
2022-10-16T22:20:40.319Z,98916.84
2022-10-16T22:22:45.080Z,98910.84
2022-10-16T22:24:52.417Z,98912.66
2022-10-16T22:26:57.292Z,98918.75
2022-10-16T22:29:02.182Z,98924.09
2022-10-16T22:31:09.891Z,98926.06
2022-10-16T22:33:15.551Z,98923.66
2022-10-16T22:35:20.386Z,98922.00
2022-10-16T22:37:28.079Z,98917.75
2022-10-16T22:39:33.101Z,98924.88
2022-10-16T22:41:40.789Z,98924.13
2022-10-16T22:43:48.229Z,98923.34
2022-10-16T22:45:53.001Z,98925.16
2022-10-16T22:47:57.707Z,98926.06
2022-10-16T22:50:02.471Z,98931.31
2022-10-16T22:52:07.548Z,98934.06
2022-10-16T22:54:12.314Z,98931.50
2022-10-16T22:56:18.859Z,98935.16
2022-10-16T22:58:29.534Z,98934.28
2022-10-16T23:00:34.613Z,98930.13
2022-10-16T23:02:43.607Z,98932.09
2022-10-16T23:04:48.401Z,98941.84
2022-10-16T23:06:53.196Z,98942.78
2022-10-16T23:08:59.550Z,98947.94
2022-10-16T23:11:09.115Z,98939.13
2022-10-16T23:13:14.754Z,98941.84
2022-10-16T23:15:22.136Z,98949.06
2022-10-16T23:17:27.039Z,98949.13
2022-10-16T23:19:31.903Z,98944.03
2022-10-16T23:21:36.593Z,98951.19
2022-10-16T23:23:42.431Z,98945.22
2022-10-16T23:25:50.846Z,98954.72
2022-10-16T23:27:56.721Z,98951.31
2022-10-16T23:30:01.604Z,98951.31
2022-10-16T23:32:09.019Z,98956.50
2022-10-16T23:34:13.735Z,98957.47
2022-10-16T23:36:20.621Z,98970.59
2022-10-16T23:38:27.143Z,98967.09
2022-10-16T23:40:31.954Z,98970.78
2022-10-16T23:42:36.992Z,98970.78
2022-10-16T23:44:41.771Z,98974.31
2022-10-16T23:46:46.496Z,98970.22
2022-10-16T23:48:53.941Z,98973.81
2022-10-16T23:50:58.654Z,98972.19
2022-10-16T23:53:06.586Z,98971.34
2022-10-16T23:55:14.896Z,98969.66
2022-10-16T23:57:19.671Z,98973.13
2022-10-16T23:59:24.613Z,98965.31
